sensor_id;sensor_type;location;lat;lon;timestamp;temperature;humidity
18694;DHT22;9477;51.414;10.362;2022-12-18T00:00:28;-5.50;61.80
18694;DHT22;9477;51.414;10.362;2022-12-18T00:02:31;-5.50;61.80
18694;DHT22;9477;51.414;10.362;2022-12-18T00:04:38;-5.50;61.60
18694;DHT22;9477;51.414;10.362;2022-12-18T00:06:41;-5.50;61.30
18694;DHT22;9477;51.414;10.362;2022-12-18T00:08:45;-5.50;61.30
18694;DHT22;9477;51.414;10.362;2022-12-18T00:10:48;-5.50;61.30
18694;DHT22;9477;51.414;10.362;2022-12-18T00:12:51;-5.40;61.40
18694;DHT22;9477;51.414;10.362;2022-12-18T00:14:54;-5.40;61.30
18694;DHT22;9477;51.414;10.362;2022-12-18T00:16:57;-5.40;61.20
18694;DHT22;9477;51.414;10.362;2022-12-18T00:19:03;-5.40;61.10
18694;DHT22;9477;51.414;10.362;2022-12-18T00:21:09;-5.50;60.90
18694;DHT22;9477;51.414;10.362;2022-12-18T00:23:12;-5.50;60.80
18694;DHT22;9477;51.414;10.362;2022-12-18T00:25:15;-5.60;60.60
18694;DHT22;9477;51.414;10.362;2022-12-18T00:27:18;-5.70;60.80
18694;DHT22;9477;51.414;10.362;2022-12-18T00:29:21;-5.60;61.60
18694;DHT22;9477;51.414;10.362;2022-12-18T00:31:25;-5.70;60.90
18694;DHT22;9477;51.414;10.362;2022-12-18T00:33:28;-5.60;61.10
18694;DHT22;9477;51.414;10.362;2022-12-18T00:35:31;-5.60;61.10
18694;DHT22;9477;51.414;10.362;2022-12-18T00:37:36;-5.60;61.10
18694;DHT22;9477;51.414;10.362;2022-12-18T00:39:39;-5.60;61.00
18694;DHT22;9477;51.414;10.362;2022-12-18T00:41:42;-5.60;61.00
18694;DHT22;9477;51.414;10.362;2022-12-18T00:44:03;-5.60;61.00
18694;DHT22;9477;51.414;10.362;2022-12-18T00:46:07;-5.60;61.00
18694;DHT22;9477;51.414;10.362;2022-12-18T00:48:10;-5.70;60.70
18694;DHT22;9477;51.414;10.362;2022-12-18T00:50:13;-5.70;60.70
18694;DHT22;9477;51.414;10.362;2022-12-18T00:52:16;-5.70;60.60
18694;DHT22;9477;51.414;10.362;2022-12-18T00:54:20;-5.70;60.60
18694;DHT22;9477;51.414;10.362;2022-12-18T00:56:23;-5.80;60.20
18694;DHT22;9477;51.414;10.362;2022-12-18T00:58:28;-5.90;60.20
18694;DHT22;9477;51.414;10.362;2022-12-18T01:00:31;-6.00;60.30
18694;DHT22;9477;51.414;10.362;2022-12-18T01:02:35;-5.90;60.70
18694;DHT22;9477;51.414;10.362;2022-12-18T01:04:38;-5.90;60.70
18694;DHT22;9477;51.414;10.362;2022-12-18T01:06:41;-5.80;60.80
18694;DHT22;9477;51.414;10.362;2022-12-18T01:08:45;-5.90;60.60
18694;DHT22;9477;51.414;10.362;2022-12-18T01:10:49;-5.90;60.60
18694;DHT22;9477;51.414;10.362;2022-12-18T01:12:52;-5.90;60.60
18694;DHT22;9477;51.414;10.362;2022-12-18T01:14:55;-6.10;60.20
18694;DHT22;9477;51.414;10.362;2022-12-18T01:16:58;-6.10;60.50
18694;DHT22;9477;51.414;10.362;2022-12-18T01:19:04;-6.10;60.60
18694;DHT22;9477;51.414;10.362;2022-12-18T01:21:09;-6.00;60.70
18694;DHT22;9477;51.414;10.362;2022-12-18T01:23:12;-6.10;60.50
18694;DHT22;9477;51.414;10.362;2022-12-18T01:25:15;-6.10;60.50
18694;DHT22;9477;51.414;10.362;2022-12-18T01:27:19;-6.10;60.40
18694;DHT22;9477;51.414;10.362;2022-12-18T01:29:22;-6.10;60.60
18694;DHT22;9477;51.414;10.362;2022-12-18T01:31:28;-6.20;60.40
18694;DHT22;9477;51.414;10.362;2022-12-18T01:33:31;-6.20;60.80
18694;DHT22;9477;51.414;10.362;2022-12-18T01:35:40;-6.20;60.80
18694;DHT22;9477;51.414;10.362;2022-12-18T01:37:43;-6.20;60.70
18694;DHT22;9477;51.414;10.362;2022-12-18T01:39:46;-6.30;60.60
18694;DHT22;9477;51.414;10.362;2022-12-18T01:41:50;-6.20;61.00
18694;DHT22;9477;51.414;10.362;2022-12-18T01:46:42;-6.00;61.20
18694;DHT22;9477;51.414;10.362;2022-12-18T01:48:47;-6.00;60.70
18694;DHT22;9477;51.414;10.362;2022-12-18T01:50:50;-6.00;60.50
18694;DHT22;9477;51.414;10.362;2022-12-18T01:52:56;-6.20;60.10
18694;DHT22;9477;51.414;10.362;2022-12-18T01:55:00;-6.20;60.40
18694;DHT22;9477;51.414;10.362;2022-12-18T01:57:03;-6.20;60.60
18694;DHT22;9477;51.414;10.362;2022-12-18T01:59:08;-6.20;60.50
18694;DHT22;9477;51.414;10.362;2022-12-18T02:01:12;-6.30;60.60
18694;DHT22;9477;51.414;10.362;2022-12-18T02:03:17;-6.40;60.70
18694;DHT22;9477;51.414;10.362;2022-12-18T02:05:26;-6.40;60.90
18694;DHT22;9477;51.414;10.362;2022-12-18T02:07:40;-6.40;61.10
18694;DHT22;9477;51.414;10.362;2022-12-18T02:09:47;-6.30;61.40
18694;DHT22;9477;51.414;10.362;2022-12-18T02:11:56;-6.30;61.30
18694;DHT22;9477;51.414;10.362;2022-12-18T02:16:54;-6.20;61.10
18694;DHT22;9477;51.414;10.362;2022-12-18T02:19:08;-6.20;60.80
18694;DHT22;9477;51.414;10.362;2022-12-18T02:21:25;-6.20;60.60
18694;DHT22;9477;51.414;10.362;2022-12-18T02:23:46;-6.20;60.70
18694;DHT22;9477;51.414;10.362;2022-12-18T02:26:12;-6.20;60.50
18694;DHT22;9477;51.414;10.362;2022-12-18T02:28:20;-6.40;60.20
18694;DHT22;9477;51.414;10.362;2022-12-18T02:30:23;-6.50;60.30
18694;DHT22;9477;51.414;10.362;2022-12-18T02:32:28;-6.40;60.60
18694;DHT22;9477;51.414;10.362;2022-12-18T02:34:37;-6.40;60.80
18694;DHT22;9477;51.414;10.362;2022-12-18T02:36:42;-6.40;60.80
18694;DHT22;9477;51.414;10.362;2022-12-18T02:38:46;-6.40;60.50
18694;DHT22;9477;51.414;10.362;2022-12-18T02:40:51;-6.30;60.60
18694;DHT22;9477;51.414;10.362;2022-12-18T02:43:02;-6.40;60.30
18694;DHT22;9477;51.414;10.362;2022-12-18T02:45:06;-6.40;60.20
18694;DHT22;9477;51.414;10.362;2022-12-18T02:47:11;-6.40;60.20
18694;DHT22;9477;51.414;10.362;2022-12-18T02:49:26;-6.40;60.10
18694;DHT22;9477;51.414;10.362;2022-12-18T02:51:36;-6.30;60.30
18694;DHT22;9477;51.414;10.362;2022-12-18T02:53:45;-6.40;60.00
18694;DHT22;9477;51.414;10.362;2022-12-18T02:55:58;-6.40;59.90
18694;DHT22;9477;51.414;10.362;2022-12-18T02:58:08;-6.40;59.80
18694;DHT22;9477;51.414;10.362;2022-12-18T03:00:17;-6.50;59.80
18694;DHT22;9477;51.414;10.362;2022-12-18T03:02:25;-6.50;59.80
18694;DHT22;9477;51.414;10.362;2022-12-18T03:04:34;-6.40;60.00
18694;DHT22;9477;51.414;10.362;2022-12-18T03:06:43;-6.40;60.00
18694;DHT22;9477;51.414;10.362;2022-12-18T03:08:54;-6.40;59.80
18694;DHT22;9477;51.414;10.362;2022-12-18T03:11:02;-6.40;59.80
18694;DHT22;9477;51.414;10.362;2022-12-18T03:13:10;-6.40;60.40
18694;DHT22;9477;51.414;10.362;2022-12-18T03:15:17;-6.50;59.70
18694;DHT22;9477;51.414;10.362;2022-12-18T03:17:23;-6.50;59.70
18694;DHT22;9477;51.414;10.362;2022-12-18T03:19:28;-6.60;59.60
18694;DHT22;9477;51.414;10.362;2022-12-18T03:21:37;-6.50;59.90
18694;DHT22;9477;51.414;10.362;2022-12-18T03:23:46;-6.50;59.80
18694;DHT22;9477;51.414;10.362;2022-12-18T03:25:52;-6.50;59.80
18694;DHT22;9477;51.414;10.362;2022-12-18T03:27:59;-6.60;59.50
18694;DHT22;9477;51.414;10.362;2022-12-18T03:30:07;-6.60;59.50
18694;DHT22;9477;51.414;10.362;2022-12-18T03:32:16;-6.70;59.40
18694;DHT22;9477;51.414;10.362;2022-12-18T03:34:23;-6.70;59.40
18694;DHT22;9477;51.414;10.362;2022-12-18T03:36:27;-6.70;59.60
18694;DHT22;9477;51.414;10.362;2022-12-18T03:38:30;-6.80;59.50
18694;DHT22;9477;51.414;10.362;2022-12-18T03:40:41;-6.80;59.50
18694;DHT22;9477;51.414;10.362;2022-12-18T03:42:49;-6.70;59.60
18694;DHT22;9477;51.414;10.362;2022-12-18T03:44:57;-6.70;59.70
18694;DHT22;9477;51.414;10.362;2022-12-18T03:47:07;-6.70;59.70
18694;DHT22;9477;51.414;10.362;2022-12-18T03:49:17;-6.70;59.50
18694;DHT22;9477;51.414;10.362;2022-12-18T03:51:27;-6.70;59.30
18694;DHT22;9477;51.414;10.362;2022-12-18T03:53:36;-6.80;59.10
18694;DHT22;9477;51.414;10.362;2022-12-18T03:55:44;-6.90;59.20
18694;DHT22;9477;51.414;10.362;2022-12-18T03:57:48;-6.90;59.30
18694;DHT22;9477;51.414;10.362;2022-12-18T03:59:55;-6.80;59.50
18694;DHT22;9477;51.414;10.362;2022-12-18T04:02:00;-6.90;59.30
18694;DHT22;9477;51.414;10.362;2022-12-18T04:04:07;-6.90;59.30
18694;DHT22;9477;51.414;10.362;2022-12-18T04:06:11;-6.90;59.20
18694;DHT22;9477;51.414;10.362;2022-12-18T04:08:15;-7.00;59.20
18694;DHT22;9477;51.414;10.362;2022-12-18T04:10:19;-7.00;59.10
18694;DHT22;9477;51.414;10.362;2022-12-18T04:12:24;-6.80;59.50
18694;DHT22;9477;51.414;10.362;2022-12-18T04:14:27;-6.90;59.30
18694;DHT22;9477;51.414;10.362;2022-12-18T04:16:30;-7.00;58.80
18694;DHT22;9477;51.414;10.362;2022-12-18T04:18:33;-6.90;59.00
18694;DHT22;9477;51.414;10.362;2022-12-18T04:20:38;-7.00;58.90
18694;DHT22;9477;51.414;10.362;2022-12-18T04:22:41;-6.90;59.00
18694;DHT22;9477;51.414;10.362;2022-12-18T04:24:44;-6.90;59.00
18694;DHT22;9477;51.414;10.362;2022-12-18T04:26:47;-6.90;58.90
18694;DHT22;9477;51.414;10.362;2022-12-18T04:28:50;-6.90;58.80
18694;DHT22;9477;51.414;10.362;2022-12-18T04:30:53;-7.00;58.60
18694;DHT22;9477;51.414;10.362;2022-12-18T04:32:56;-7.20;58.40
18694;DHT22;9477;51.414;10.362;2022-12-18T04:34:59;-7.20;58.80
18694;DHT22;9477;51.414;10.362;2022-12-18T04:37:04;-7.20;58.80
18694;DHT22;9477;51.414;10.362;2022-12-18T04:39:07;-7.10;58.90
18694;DHT22;9477;51.414;10.362;2022-12-18T04:41:10;-7.10;59.00
18694;DHT22;9477;51.414;10.362;2022-12-18T04:43:13;-7.20;58.70
18694;DHT22;9477;51.414;10.362;2022-12-18T04:45:16;-7.20;58.70
18694;DHT22;9477;51.414;10.362;2022-12-18T04:47:20;-7.10;58.80
18694;DHT22;9477;51.414;10.362;2022-12-18T04:49:23;-7.10;58.70
18694;DHT22;9477;51.414;10.362;2022-12-18T04:51:26;-7.30;58.30
18694;DHT22;9477;51.414;10.362;2022-12-18T04:53:31;-7.40;58.30
18694;DHT22;9477;51.414;10.362;2022-12-18T04:55:34;-7.50;58.40
18694;DHT22;9477;51.414;10.362;2022-12-18T04:57:37;-7.50;58.50
18694;DHT22;9477;51.414;10.362;2022-12-18T04:59:40;-7.50;58.80
18694;DHT22;9477;51.414;10.362;2022-12-18T05:01:43;-7.40;58.90
18694;DHT22;9477;51.414;10.362;2022-12-18T05:03:47;-7.40;58.70
18694;DHT22;9477;51.414;10.362;2022-12-18T05:05:51;-7.40;58.80
18694;DHT22;9477;51.414;10.362;2022-12-18T05:07:54;-7.30;58.90
18694;DHT22;9477;51.414;10.362;2022-12-18T05:09:58;-7.30;58.80
18694;DHT22;9477;51.414;10.362;2022-12-18T05:12:01;-7.30;58.70
18694;DHT22;9477;51.414;10.362;2022-12-18T05:14:04;-7.30;58.80
18694;DHT22;9477;51.414;10.362;2022-12-18T05:16:08;-7.30;58.70
18694;DHT22;9477;51.414;10.362;2022-12-18T05:18:11;-7.30;58.80
18694;DHT22;9477;51.414;10.362;2022-12-18T05:20:14;-7.30;58.60
18694;DHT22;9477;51.414;10.362;2022-12-18T05:22:17;-7.30;58.60
18694;DHT22;9477;51.414;10.362;2022-12-18T05:24:20;-7.30;58.40
18694;DHT22;9477;51.414;10.362;2022-12-18T05:26:25;-7.30;58.40
18694;DHT22;9477;51.414;10.362;2022-12-18T05:28:29;-7.30;58.40
18694;DHT22;9477;51.414;10.362;2022-12-18T05:30:32;-7.40;58.30
18694;DHT22;9477;51.414;10.362;2022-12-18T05:32:36;-7.40;58.40
18694;DHT22;9477;51.414;10.362;2022-12-18T05:34:38;-7.40;58.40
18694;DHT22;9477;51.414;10.362;2022-12-18T05:36:42;-7.30;58.40
18694;DHT22;9477;51.414;10.362;2022-12-18T05:38:45;-7.30;58.40
18694;DHT22;9477;51.414;10.362;2022-12-18T05:40:49;-7.30;58.40
18694;DHT22;9477;51.414;10.362;2022-12-18T05:42:53;-7.30;58.40
18694;DHT22;9477;51.414;10.362;2022-12-18T05:44:56;-7.40;58.20
18694;DHT22;9477;51.414;10.362;2022-12-18T05:46:59;-7.40;58.10
18694;DHT22;9477;51.414;10.362;2022-12-18T05:49:02;-7.40;58.00
18694;DHT22;9477;51.414;10.362;2022-12-18T05:51:08;-7.40;58.20
18694;DHT22;9477;51.414;10.362;2022-12-18T05:53:12;-7.40;58.30
18694;DHT22;9477;51.414;10.362;2022-12-18T05:55:16;-7.40;58.10
18694;DHT22;9477;51.414;10.362;2022-12-18T05:57:21;-7.50;57.90
18694;DHT22;9477;51.414;10.362;2022-12-18T05:59:25;-7.50;58.00
18694;DHT22;9477;51.414;10.362;2022-12-18T06:01:28;-7.40;58.10
18694;DHT22;9477;51.414;10.362;2022-12-18T06:03:31;-7.50;58.00
18694;DHT22;9477;51.414;10.362;2022-12-18T06:05:35;-7.50;58.00
18694;DHT22;9477;51.414;10.362;2022-12-18T06:07:38;-7.50;57.90
18694;DHT22;9477;51.414;10.362;2022-12-18T06:09:42;-7.50;58.00
18694;DHT22;9477;51.414;10.362;2022-12-18T06:11:45;-7.50;58.00
18694;DHT22;9477;51.414;10.362;2022-12-18T06:13:50;-7.60;57.90
18694;DHT22;9477;51.414;10.362;2022-12-18T06:16:03;-7.60;58.00
18694;DHT22;9477;51.414;10.362;2022-12-18T06:18:06;-7.60;58.20
18694;DHT22;9477;51.414;10.362;2022-12-18T06:20:10;-7.60;58.10
18694;DHT22;9477;51.414;10.362;2022-12-18T06:22:14;-7.50;58.30
18694;DHT22;9477;51.414;10.362;2022-12-18T06:24:18;-7.50;58.30
18694;DHT22;9477;51.414;10.362;2022-12-18T06:26:21;-7.50;58.10
18694;DHT22;9477;51.414;10.362;2022-12-18T06:28:29;-7.50;58.10
18694;DHT22;9477;51.414;10.362;2022-12-18T06:30:32;-7.50;57.90
18694;DHT22;9477;51.414;10.362;2022-12-18T06:32:36;-7.50;58.00
18694;DHT22;9477;51.414;10.362;2022-12-18T06:34:39;-7.50;57.90
18694;DHT22;9477;51.414;10.362;2022-12-18T06:36:42;-7.60;57.70
18694;DHT22;9477;51.414;10.362;2022-12-18T06:38:45;-7.60;57.70
18694;DHT22;9477;51.414;10.362;2022-12-18T06:40:48;-7.60;57.70
18694;DHT22;9477;51.414;10.362;2022-12-18T06:42:51;-7.60;57.80
18694;DHT22;9477;51.414;10.362;2022-12-18T06:44:55;-7.60;57.80
18694;DHT22;9477;51.414;10.362;2022-12-18T06:46:58;-7.60;57.70
18694;DHT22;9477;51.414;10.362;2022-12-18T06:49:02;-7.70;57.50
18694;DHT22;9477;51.414;10.362;2022-12-18T06:51:05;-7.80;57.50
18694;DHT22;9477;51.414;10.362;2022-12-18T06:53:08;-7.70;57.90
18694;DHT22;9477;51.414;10.362;2022-12-18T06:55:12;-7.80;57.90
18694;DHT22;9477;51.414;10.362;2022-12-18T06:57:15;-7.80;57.80
18694;DHT22;9477;51.414;10.362;2022-12-18T06:59:18;-7.80;57.80
18694;DHT22;9477;51.414;10.362;2022-12-18T07:01:21;-7.70;58.00
18694;DHT22;9477;51.414;10.362;2022-12-18T07:03:27;-7.70;58.00
18694;DHT22;9477;51.414;10.362;2022-12-18T07:05:32;-7.70;57.90
18694;DHT22;9477;51.414;10.362;2022-12-18T07:07:35;-7.80;57.70
18694;DHT22;9477;51.414;10.362;2022-12-18T07:09:38;-7.80;57.70
18694;DHT22;9477;51.414;10.362;2022-12-18T07:11:41;-7.70;58.40
18694;DHT22;9477;51.414;10.362;2022-12-18T07:13:45;-7.70;57.80
18694;DHT22;9477;51.414;10.362;2022-12-18T07:15:48;-7.70;57.60
18694;DHT22;9477;51.414;10.362;2022-12-18T07:17:51;-7.90;57.30
18694;DHT22;9477;51.414;10.362;2022-12-18T07:19:54;-7.70;57.60
18694;DHT22;9477;51.414;10.362;2022-12-18T07:21:59;-7.70;57.70
18694;DHT22;9477;51.414;10.362;2022-12-18T07:24:02;-7.60;57.80
18694;DHT22;9477;51.414;10.362;2022-12-18T07:26:06;-7.60;57.70
18694;DHT22;9477;51.414;10.362;2022-12-18T07:28:10;-7.70;57.50
18694;DHT22;9477;51.414;10.362;2022-12-18T07:30:18;-7.70;57.30
18694;DHT22;9477;51.414;10.362;2022-12-18T07:32:21;-7.80;57.30
18694;DHT22;9477;51.414;10.362;2022-12-18T07:34:24;-7.70;57.40
18694;DHT22;9477;51.414;10.362;2022-12-18T07:36:27;-7.70;57.50
18694;DHT22;9477;51.414;10.362;2022-12-18T07:38:32;-7.70;57.60
18694;DHT22;9477;51.414;10.362;2022-12-18T07:40:35;-7.70;57.60
18694;DHT22;9477;51.414;10.362;2022-12-18T07:42:38;-7.60;57.60
18694;DHT22;9477;51.414;10.362;2022-12-18T07:44:41;-7.60;57.60
18694;DHT22;9477;51.414;10.362;2022-12-18T07:46:44;-7.50;57.80
18694;DHT22;9477;51.414;10.362;2022-12-18T07:48:47;-7.40;57.90
18694;DHT22;9477;51.414;10.362;2022-12-18T07:50:51;-7.40;57.80
18694;DHT22;9477;51.414;10.362;2022-12-18T07:52:54;-7.30;57.80
18694;DHT22;9477;51.414;10.362;2022-12-18T07:54:59;-7.40;57.50
18694;DHT22;9477;51.414;10.362;2022-12-18T07:57:02;-7.30;57.60
18694;DHT22;9477;51.414;10.362;2022-12-18T07:59:22;-7.30;57.60
18694;DHT22;9477;51.414;10.362;2022-12-18T08:01:25;-7.20;57.70
18694;DHT22;9477;51.414;10.362;2022-12-18T08:03:29;-7.20;57.70
18694;DHT22;9477;51.414;10.362;2022-12-18T08:05:32;-7.10;57.70
18694;DHT22;9477;51.414;10.362;2022-12-18T08:07:35;-7.10;57.70
18694;DHT22;9477;51.414;10.362;2022-12-18T08:09:38;-7.10;57.60
18694;DHT22;9477;51.414;10.362;2022-12-18T08:11:43;-7.10;57.60
18694;DHT22;9477;51.414;10.362;2022-12-18T08:13:46;-7.00;57.80
18694;DHT22;9477;51.414;10.362;2022-12-18T08:15:56;-6.90;58.00
18694;DHT22;9477;51.414;10.362;2022-12-18T08:17:59;-6.90;58.00
18694;DHT22;9477;51.414;10.362;2022-12-18T08:20:03;-6.80;58.00
18694;DHT22;9477;51.414;10.362;2022-12-18T08:22:07;-6.70;57.90
18694;DHT22;9477;51.414;10.362;2022-12-18T08:24:10;-6.60;57.90
18694;DHT22;9477;51.414;10.362;2022-12-18T08:26:14;-6.60;58.00
18694;DHT22;9477;51.414;10.362;2022-12-18T08:28:19;-6.50;58.10
18694;DHT22;9477;51.414;10.362;2022-12-18T08:30:22;-6.40;58.20
18694;DHT22;9477;51.414;10.362;2022-12-18T08:32:26;-6.40;58.10
18694;DHT22;9477;51.414;10.362;2022-12-18T08:34:30;-6.30;58.30
18694;DHT22;9477;51.414;10.362;2022-12-18T08:36:33;-6.30;58.10
18694;DHT22;9477;51.414;10.362;2022-12-18T08:38:36;-6.20;58.10
18694;DHT22;9477;51.414;10.362;2022-12-18T08:40:39;-6.20;58.20
18694;DHT22;9477;51.414;10.362;2022-12-18T08:42:42;-6.10;58.30
18694;DHT22;9477;51.414;10.362;2022-12-18T08:45:05;-6.10;58.40
18694;DHT22;9477;51.414;10.362;2022-12-18T08:47:08;-6.00;58.50
18694;DHT22;9477;51.414;10.362;2022-12-18T08:49:12;-6.00;58.20
18694;DHT22;9477;51.414;10.362;2022-12-18T08:51:16;-6.00;58.40
18694;DHT22;9477;51.414;10.362;2022-12-18T08:53:19;-6.00;58.50
18694;DHT22;9477;51.414;10.362;2022-12-18T08:55:22;-5.80;58.90
18694;DHT22;9477;51.414;10.362;2022-12-18T08:57:25;-5.70;58.90
18694;DHT22;9477;51.414;10.362;2022-12-18T08:59:28;-5.60;58.80
18694;DHT22;9477;51.414;10.362;2022-12-18T09:01:32;-5.60;58.70
18694;DHT22;9477;51.414;10.362;2022-12-18T09:03:36;-5.50;58.90
18694;DHT22;9477;51.414;10.362;2022-12-18T09:05:40;-5.30;59.00
18694;DHT22;9477;51.414;10.362;2022-12-18T09:07:43;-5.30;58.90
18694;DHT22;9477;51.414;10.362;2022-12-18T09:09:46;-5.10;59.00
18694;DHT22;9477;51.414;10.362;2022-12-18T09:11:49;-5.00;58.90
18694;DHT22;9477;51.414;10.362;2022-12-18T09:13:53;-5.00;58.70
18694;DHT22;9477;51.414;10.362;2022-12-18T09:15:56;-5.00;58.80
18694;DHT22;9477;51.414;10.362;2022-12-18T09:18:00;-5.00;59.30
18694;DHT22;9477;51.414;10.362;2022-12-18T09:20:04;-4.90;58.90
18694;DHT22;9477;51.414;10.362;2022-12-18T09:22:07;-4.80;59.00
18694;DHT22;9477;51.414;10.362;2022-12-18T09:24:12;-4.80;58.80
18694;DHT22;9477;51.414;10.362;2022-12-18T09:26:15;-4.80;58.90
18694;DHT22;9477;51.414;10.362;2022-12-18T09:28:18;-4.70;58.90
18694;DHT22;9477;51.414;10.362;2022-12-18T09:30:21;-4.70;58.70
18694;DHT22;9477;51.414;10.362;2022-12-18T09:32:24;-4.80;58.50
18694;DHT22;9477;51.414;10.362;2022-12-18T09:34:29;-4.70;58.70
18694;DHT22;9477;51.414;10.362;2022-12-18T09:36:32;-4.80;58.60
18694;DHT22;9477;51.414;10.362;2022-12-18T09:38:36;-4.70;58.90
18694;DHT22;9477;51.414;10.362;2022-12-18T09:40:43;-4.60;59.00
18694;DHT22;9477;51.414;10.362;2022-12-18T09:42:52;-4.50;59.10
18694;DHT22;9477;51.414;10.362;2022-12-18T09:44:58;-4.40;59.10
18694;DHT22;9477;51.414;10.362;2022-12-18T09:47:10;-4.20;59.20
18694;DHT22;9477;51.414;10.362;2022-12-18T09:49:17;-4.10;59.30
18694;DHT22;9477;51.414;10.362;2022-12-18T09:51:27;-3.90;59.50
18694;DHT22;9477;51.414;10.362;2022-12-18T09:53:34;-3.70;59.50
18694;DHT22;9477;51.414;10.362;2022-12-18T09:55:41;-3.60;59.50
18694;DHT22;9477;51.414;10.362;2022-12-18T09:57:50;-3.40;59.50
18694;DHT22;9477;51.414;10.362;2022-12-18T09:59:56;-3.20;59.60
18694;DHT22;9477;51.414;10.362;2022-12-18T10:02:12;-2.90;59.80
18694;DHT22;9477;51.414;10.362;2022-12-18T10:04:16;-2.80;59.70
18694;DHT22;9477;51.414;10.362;2022-12-18T10:06:24;-2.60;59.50
18694;DHT22;9477;51.414;10.362;2022-12-18T10:08:37;-2.50;59.60
18694;DHT22;9477;51.414;10.362;2022-12-18T10:10:48;-2.30;59.60
18694;DHT22;9477;51.414;10.362;2022-12-18T10:12:58;-2.20;59.80
18694;DHT22;9477;51.414;10.362;2022-12-18T10:15:10;-2.10;59.60
18694;DHT22;9477;51.414;10.362;2022-12-18T10:17:22;-1.90;59.70
18694;DHT22;9477;51.414;10.362;2022-12-18T10:19:37;-2.00;59.30
18694;DHT22;9477;51.414;10.362;2022-12-18T10:21:48;-2.00;59.40
18694;DHT22;9477;51.414;10.362;2022-12-18T10:24:00;-2.00;59.50
18694;DHT22;9477;51.414;10.362;2022-12-18T10:26:09;-2.00;59.50
18694;DHT22;9477;51.414;10.362;2022-12-18T10:28:15;-1.80;59.70
18694;DHT22;9477;51.414;10.362;2022-12-18T10:30:20;-1.80;59.80
18694;DHT22;9477;51.414;10.362;2022-12-18T10:32:25;-1.80;59.70
18694;DHT22;9477;51.414;10.362;2022-12-18T10:34:28;-1.80;59.70
18694;DHT22;9477;51.414;10.362;2022-12-18T10:36:31;-1.70;59.70
18694;DHT22;9477;51.414;10.362;2022-12-18T10:38:36;-1.70;59.90
18694;DHT22;9477;51.414;10.362;2022-12-18T10:40:49;-1.70;60.00
18694;DHT22;9477;51.414;10.362;2022-12-18T10:43:03;-1.70;60.00
18694;DHT22;9477;51.414;10.362;2022-12-18T10:45:10;-1.70;60.00
18694;DHT22;9477;51.414;10.362;2022-12-18T10:47:15;-1.60;60.20
18694;DHT22;9477;51.414;10.362;2022-12-18T10:49:23;-1.60;60.10
18694;DHT22;9477;51.414;10.362;2022-12-18T10:51:32;-1.60;60.00
18694;DHT22;9477;51.414;10.362;2022-12-18T10:53:39;-1.60;60.00
18694;DHT22;9477;51.414;10.362;2022-12-18T10:55:45;-1.70;59.90
18694;DHT22;9477;51.414;10.362;2022-12-18T10:57:49;-1.70;60.20
18694;DHT22;9477;51.414;10.362;2022-12-18T10:59:53;-1.60;60.50
18694;DHT22;9477;51.414;10.362;2022-12-18T11:01:57;-1.60;60.40
18694;DHT22;9477;51.414;10.362;2022-12-18T11:04:04;-1.50;60.70
18694;DHT22;9477;51.414;10.362;2022-12-18T11:06:12;-1.50;60.70
18694;DHT22;9477;51.414;10.362;2022-12-18T11:08:20;-1.40;60.70
18694;DHT22;9477;51.414;10.362;2022-12-18T11:10:30;-1.30;60.80
18694;DHT22;9477;51.414;10.362;2022-12-18T11:12:33;-1.20;60.90
18694;DHT22;9477;51.414;10.362;2022-12-18T11:14:43;-1.10;60.90
18694;DHT22;9477;51.414;10.362;2022-12-18T11:16:49;-1.00;61.10
18694;DHT22;9477;51.414;10.362;2022-12-18T11:19:19;-0.80;61.40
18694;DHT22;9477;51.414;10.362;2022-12-18T11:21:26;-0.70;61.30
18694;DHT22;9477;51.414;10.362;2022-12-18T11:23:29;-0.50;61.00
18694;DHT22;9477;51.414;10.362;2022-12-18T11:25:33;-0.40;61.10
18694;DHT22;9477;51.414;10.362;2022-12-18T11:27:37;-0.30;61.30
18694;DHT22;9477;51.414;10.362;2022-12-18T11:29:40;-0.20;61.40
18694;DHT22;9477;51.414;10.362;2022-12-18T11:31:47;-0.20;61.00
18694;DHT22;9477;51.414;10.362;2022-12-18T11:33:56;-0.10;61.20
18694;DHT22;9477;51.414;10.362;2022-12-18T11:36:21;-0.10;61.20
18694;DHT22;9477;51.414;10.362;2022-12-18T11:38:27;0.00;61.50
18694;DHT22;9477;51.414;10.362;2022-12-18T11:40:36;0.20;61.80
18694;DHT22;9477;51.414;10.362;2022-12-18T11:42:47;0.30;61.90
18694;DHT22;9477;51.414;10.362;2022-12-18T11:44:53;0.40;61.90
18694;DHT22;9477;51.414;10.362;2022-12-18T11:47:01;0.50;61.90
18694;DHT22;9477;51.414;10.362;2022-12-18T11:49:09;0.60;61.80
18694;DHT22;9477;51.414;10.362;2022-12-18T11:51:19;0.60;61.80
18694;DHT22;9477;51.414;10.362;2022-12-18T11:53:29;0.60;62.30
18694;DHT22;9477;51.414;10.362;2022-12-18T11:55:41;0.60;61.80
18694;DHT22;9477;51.414;10.362;2022-12-18T11:57:50;0.60;62.00
18694;DHT22;9477;51.414;10.362;2022-12-18T12:00:02;0.80;62.50
18694;DHT22;9477;51.414;10.362;2022-12-18T12:02:19;0.80;62.60
18694;DHT22;9477;51.414;10.362;2022-12-18T12:04:40;1.00;62.70
18694;DHT22;9477;51.414;10.362;2022-12-18T12:06:51;1.10;62.90
18694;DHT22;9477;51.414;10.362;2022-12-18T12:09:10;1.20;62.60
18694;DHT22;9477;51.414;10.362;2022-12-18T12:11:25;1.10;62.60
18694;DHT22;9477;51.414;10.362;2022-12-18T12:13:42;1.00;62.30
18694;DHT22;9477;51.414;10.362;2022-12-18T12:15:59;1.00;62.60
18694;DHT22;9477;51.414;10.362;2022-12-18T12:18:08;1.00;62.50
18694;DHT22;9477;51.414;10.362;2022-12-18T12:20:20;1.00;62.80
18694;DHT22;9477;51.414;10.362;2022-12-18T12:22:31;1.00;62.90
18694;DHT22;9477;51.414;10.362;2022-12-18T12:24:44;1.10;63.00
18694;DHT22;9477;51.414;10.362;2022-12-18T12:27:06;1.10;63.00
18694;DHT22;9477;51.414;10.362;2022-12-18T12:29:24;1.20;63.20
18694;DHT22;9477;51.414;10.362;2022-12-18T12:31:59;1.20;63.20
18694;DHT22;9477;51.414;10.362;2022-12-18T12:34:15;1.20;63.20
18694;DHT22;9477;51.414;10.362;2022-12-18T12:36:30;1.20;63.20
18694;DHT22;9477;51.414;10.362;2022-12-18T12:38:41;1.30;63.40
18694;DHT22;9477;51.414;10.362;2022-12-18T12:40:59;1.30;63.40
18694;DHT22;9477;51.414;10.362;2022-12-18T12:43:23;1.30;63.40
18694;DHT22;9477;51.414;10.362;2022-12-18T12:45:31;1.40;63.40
18694;DHT22;9477;51.414;10.362;2022-12-18T12:47:39;1.50;63.30
18694;DHT22;9477;51.414;10.362;2022-12-18T12:49:46;1.50;63.30
18694;DHT22;9477;51.414;10.362;2022-12-18T12:51:58;1.50;63.30
18694;DHT22;9477;51.414;10.362;2022-12-18T12:54:05;1.40;63.20
18694;DHT22;9477;51.414;10.362;2022-12-18T12:56:11;1.40;63.10
18694;DHT22;9477;51.414;10.362;2022-12-18T12:58:24;1.30;63.30
18694;DHT22;9477;51.414;10.362;2022-12-18T13:00:36;1.40;63.60
18694;DHT22;9477;51.414;10.362;2022-12-18T13:02:47;1.50;63.60
18694;DHT22;9477;51.414;10.362;2022-12-18T13:04:58;1.50;63.70
18694;DHT22;9477;51.414;10.362;2022-12-18T13:07:12;1.60;63.70
18694;DHT22;9477;51.414;10.362;2022-12-18T13:09:17;1.60;63.50
18694;DHT22;9477;51.414;10.362;2022-12-18T13:11:37;1.60;63.40
18694;DHT22;9477;51.414;10.362;2022-12-18T13:14:02;1.50;63.20
18694;DHT22;9477;51.414;10.362;2022-12-18T13:16:07;1.40;63.10
18694;DHT22;9477;51.414;10.362;2022-12-18T13:18:15;1.40;63.50
18694;DHT22;9477;51.414;10.362;2022-12-18T13:20:19;1.40;63.30
18694;DHT22;9477;51.414;10.362;2022-12-18T13:22:23;1.40;63.40
18694;DHT22;9477;51.414;10.362;2022-12-18T13:24:28;1.40;63.60